createdAt,value
2023-05-09T00:00:20.515Z,478.00
2023-05-09T00:01:20.558Z,477.00
2023-05-09T00:02:20.498Z,476.00
2023-05-09T00:03:20.565Z,475.00
2023-05-09T00:04:20.483Z,475.00
2023-05-09T00:05:20.496Z,477.00
2023-05-09T00:06:20.418Z,478.00
2023-05-09T00:07:20.508Z,477.00
2023-05-09T00:08:20.401Z,477.00
2023-05-09T00:09:20.458Z,478.00
2023-05-09T00:10:20.376Z,481.00
2023-05-09T00:11:20.433Z,484.00
2023-05-09T00:12:20.334Z,486.00
2023-05-09T00:13:20.498Z,485.00
2023-05-09T00:14:20.314Z,484.00
2023-05-09T00:15:20.409Z,481.00
2023-05-09T00:16:20.292Z,487.00
2023-05-09T00:17:20.392Z,488.00
2023-05-09T00:18:20.252Z,486.00
2023-05-09T00:19:20.294Z,488.00
2023-05-09T00:20:20.245Z,484.00
2023-05-09T00:21:20.258Z,484.00
2023-05-09T00:22:20.211Z,481.00
2023-05-09T00:23:20.210Z,479.00
2023-05-09T00:24:20.179Z,480.00
2023-05-09T00:25:20.219Z,480.00
2023-05-09T00:26:20.138Z,479.00
2023-05-09T00:27:22.248Z,481.00
2023-05-09T00:28:20.129Z,482.00
2023-05-09T00:29:20.152Z,477.00
2023-05-09T00:30:20.095Z,475.00
2023-05-09T00:31:20.156Z,475.00
2023-05-09T00:32:20.101Z,474.00
2023-05-09T00:33:20.131Z,476.00
2023-05-09T00:34:20.057Z,478.00
2023-05-09T00:35:20.094Z,479.00
2023-05-09T00:36:20.128Z,478.00
2023-05-09T00:37:22.253Z,475.00
2023-05-09T00:38:20.011Z,476.00
2023-05-09T00:39:19.987Z,478.00
2023-05-09T00:40:20.018Z,476.00
2023-05-09T00:41:19.948Z,472.00
2023-05-09T00:42:20.054Z,470.00
2023-05-09T00:43:19.920Z,468.00
2023-05-09T00:44:19.966Z,470.00
2023-05-09T00:45:19.931Z,469.00
2023-05-09T00:46:20.008Z,471.00
2023-05-09T00:47:19.863Z,470.00
2023-05-09T00:48:19.882Z,473.00
2023-05-09T00:49:19.836Z,476.00
2023-05-09T00:50:19.892Z,474.00
2023-05-09T00:51:19.830Z,477.00
2023-05-09T00:52:19.917Z,478.00
2023-05-09T00:53:19.781Z,478.00
2023-05-09T00:54:19.815Z,479.00
2023-05-09T00:55:19.766Z,479.00
2023-05-09T00:56:19.849Z,478.00
2023-05-09T00:57:19.764Z,479.00
2023-05-09T00:58:19.734Z,479.00
2023-05-09T00:59:19.706Z,478.00
2023-05-09T01:00:19.773Z,480.00
2023-05-09T01:01:19.741Z,480.00
2023-05-09T01:02:19.799Z,480.00
2023-05-09T01:03:19.780Z,482.00
2023-05-09T01:04:19.691Z,485.00
2023-05-09T01:05:19.619Z,486.00
2023-05-09T01:06:19.695Z,483.00
2023-05-09T01:07:19.618Z,482.00
2023-05-09T01:08:19.623Z,479.00
2023-05-09T01:09:19.600Z,481.00
2023-05-09T01:10:19.659Z,475.00
2023-05-09T01:11:19.546Z,473.00
2023-05-09T01:12:19.649Z,473.00
2023-05-09T01:13:19.539Z,474.00
2023-05-09T01:14:19.554Z,475.00
2023-05-09T01:15:19.516Z,476.00
2023-05-09T01:16:19.663Z,476.00
2023-05-09T01:17:19.468Z,478.00
2023-05-09T01:18:19.471Z,475.00
2023-05-09T01:19:19.435Z,472.00
2023-05-09T01:20:19.503Z,475.00
2023-05-09T01:21:19.432Z,475.00
2023-05-09T01:22:19.408Z,475.00
2023-05-09T01:23:19.390Z,476.00
2023-05-09T01:24:19.431Z,477.00
2023-05-09T01:25:19.336Z,478.00
2023-05-09T01:26:19.441Z,473.00
2023-05-09T01:27:19.324Z,471.00
2023-05-09T01:28:19.338Z,471.00
2023-05-09T01:29:19.338Z,471.00
2023-05-09T01:30:19.386Z,469.00
2023-05-09T01:31:19.301Z,467.00
2023-05-09T01:32:19.278Z,461.00
2023-05-09T01:33:19.276Z,462.00
2023-05-09T01:34:19.326Z,462.00
2023-05-09T01:35:19.222Z,462.00
2023-05-09T01:36:19.294Z,463.00
2023-05-09T01:37:19.190Z,466.00
2023-05-09T01:38:19.242Z,463.00
2023-05-09T01:39:19.197Z,465.00
2023-05-09T01:40:19.247Z,463.00
2023-05-09T01:41:19.144Z,461.00
2023-05-09T01:42:40.245Z,461.00
2023-05-09T01:43:19.117Z,460.00
2023-05-09T01:44:19.164Z,460.00
2023-05-09T01:45:19.134Z,460.00
2023-05-09T01:46:19.206Z,457.00
2023-05-09T01:47:19.054Z,457.00
2023-05-09T01:48:19.086Z,458.00
2023-05-09T01:49:19.034Z,457.00
2023-05-09T01:50:19.111Z,457.00
2023-05-09T01:51:19.029Z,456.00
2023-05-09T01:52:19.076Z,456.00
2023-05-09T01:53:18.974Z,454.00
2023-05-09T01:54:19.018Z,456.00
2023-05-09T01:55:18.947Z,463.00
2023-05-09T01:56:19.052Z,467.00
2023-05-09T01:57:18.962Z,468.00
2023-05-09T01:58:18.955Z,466.00
2023-05-09T01:59:18.903Z,467.00
2023-05-09T02:00:18.967Z,468.00
2023-05-09T02:01:18.911Z,467.00
2023-05-09T02:02:18.948Z,464.00
2023-05-09T02:03:18.901Z,461.00
2023-05-09T02:04:19.932Z,458.00
2023-05-09T02:05:18.825Z,462.00
2023-05-09T02:06:18.905Z,466.00
2023-05-09T02:07:18.796Z,462.00
2023-05-09T02:08:18.826Z,459.00
2023-05-09T02:09:18.865Z,461.00
2023-05-09T02:10:18.837Z,461.00
2023-05-09T02:11:18.746Z,464.00
2023-05-09T02:12:18.865Z,464.00
2023-05-09T02:13:18.756Z,464.00
2023-05-09T02:14:18.787Z,463.00
2023-05-09T02:15:18.722Z,460.00
2023-05-09T02:16:20.611Z,458.00
2023-05-09T02:17:18.656Z,459.00
2023-05-09T02:18:18.719Z,459.00
2023-05-09T02:19:18.638Z,458.00
2023-05-09T02:20:18.706Z,458.00
2023-05-09T02:21:18.636Z,458.00
2023-05-09T02:22:18.632Z,456.00
2023-05-09T02:23:18.584Z,456.00
2023-05-09T02:24:18.639Z,459.00
2023-05-09T02:25:18.555Z,462.00
2023-05-09T02:26:18.795Z,467.00
2023-05-09T02:27:18.595Z,467.00
2023-05-09T02:28:18.555Z,463.00
2023-05-09T02:29:18.496Z,463.00
2023-05-09T02:30:18.583Z,461.00
2023-05-09T02:31:18.479Z,465.00
2023-05-09T02:32:18.499Z,465.00
2023-05-09T02:33:18.474Z,464.00
2023-05-09T02:34:18.489Z,464.00
2023-05-09T02:35:18.430Z,467.00
2023-05-09T02:36:18.425Z,464.00
2023-05-09T02:37:18.409Z,464.00
2023-05-09T02:38:18.434Z,461.00
2023-05-09T02:39:18.396Z,459.00
2023-05-09T02:40:18.440Z,461.00
2023-05-09T02:41:18.340Z,458.00
2023-05-09T02:42:18.365Z,457.00
2023-05-09T02:43:18.319Z,457.00
2023-05-09T02:44:18.365Z,457.00
2023-05-09T02:45:18.293Z,458.00
2023-05-09T02:46:18.448Z,457.00
2023-05-09T02:47:18.254Z,456.00
2023-05-09T02:48:18.318Z,454.00
2023-05-09T02:49:31.586Z,455.00
2023-05-09T02:50:19.287Z,454.00
2023-05-09T02:51:18.326Z,454.00
2023-05-09T02:52:18.185Z,457.00
2023-05-09T02:53:18.238Z,461.00
2023-05-09T02:54:18.180Z,459.00
2023-05-09T02:55:18.289Z,453.00
2023-05-09T02:56:18.170Z,455.00
2023-05-09T02:57:18.158Z,454.00
2023-05-09T02:58:18.117Z,453.00
2023-05-09T02:59:18.179Z,454.00
2023-05-09T03:00:18.078Z,453.00
2023-05-09T03:01:18.212Z,454.00
2023-05-09T03:02:18.074Z,454.00
2023-05-09T03:03:18.508Z,453.00
2023-05-09T03:04:18.054Z,453.00
2023-05-09T03:05:19.158Z,456.00
2023-05-09T03:06:18.007Z,454.00
2023-05-09T03:07:18.117Z,455.00
2023-05-09T03:08:17.997Z,457.00
2023-05-09T03:09:18.042Z,455.00
2023-05-09T03:10:17.969Z,457.00
2023-05-09T03:11:17.968Z,461.00
2023-05-09T03:12:17.909Z,464.00
2023-05-09T03:13:18.033Z,465.00
2023-05-09T03:14:17.920Z,466.00
2023-05-09T03:15:17.997Z,468.00
2023-05-09T03:16:17.905Z,467.00
2023-05-09T03:17:17.897Z,469.00
2023-05-09T03:18:17.860Z,470.00
2023-05-09T03:19:17.934Z,468.00
2023-05-09T03:20:17.840Z,462.00
2023-05-09T03:21:17.823Z,456.00
2023-05-09T03:22:17.780Z,458.00
2023-05-09T03:23:17.831Z,457.00
2023-05-09T03:24:17.755Z,452.00
2023-05-09T03:25:17.997Z,453.00
2023-05-09T03:26:17.762Z,454.00
2023-05-09T03:27:17.751Z,453.00
2023-05-09T03:28:17.711Z,458.00
2023-05-09T03:29:17.784Z,460.00
2023-05-09T03:30:17.676Z,463.00
2023-05-09T03:31:17.747Z,459.00
2023-05-09T03:32:17.698Z,460.00
2023-05-09T03:33:17.710Z,460.00
2023-05-09T03:34:17.624Z,461.00
2023-05-09T03:35:17.717Z,462.00
2023-05-09T03:36:17.628Z,462.00
2023-05-09T03:37:17.620Z,461.00
2023-05-09T03:38:17.626Z,460.00
2023-05-09T03:39:17.666Z,459.00
2023-05-09T03:40:17.541Z,459.00
2023-05-09T03:41:17.565Z,455.00
2023-05-09T03:42:17.510Z,458.00
2023-05-09T03:43:17.581Z,455.00
2023-05-09T03:44:17.525Z,454.00
2023-05-09T03:45:17.574Z,454.00
2023-05-09T03:46:17.513Z,453.00
2023-05-09T03:47:17.549Z,453.00
2023-05-09T03:48:17.429Z,454.00
2023-05-09T03:49:17.509Z,455.00
2023-05-09T03:50:17.431Z,455.00
2023-05-09T03:51:18.472Z,456.00
2023-05-09T03:52:17.433Z,457.00
2023-05-09T03:53:17.486Z,457.00
2023-05-09T03:54:17.366Z,458.00
2023-05-09T03:55:17.529Z,459.00
2023-05-09T03:56:17.369Z,457.00
2023-05-09T03:57:18.428Z,457.00
2023-05-09T03:58:17.295Z,458.00
2023-05-09T03:59:17.382Z,454.00
2023-05-09T04:00:17.292Z,454.00
2023-05-09T04:01:17.290Z,454.00
2023-05-09T04:02:17.344Z,452.00
2023-05-09T04:03:17.377Z,452.00
2023-05-09T04:04:17.567Z,453.00
2023-05-09T04:05:17.641Z,452.00
2023-05-09T04:06:17.216Z,454.00
2023-05-09T04:07:17.255Z,454.00
2023-05-09T04:08:17.210Z,453.00
2023-05-09T04:09:17.253Z,452.00
2023-05-09T04:10:17.241Z,452.00
2023-05-09T04:11:39.344Z,450.00
2023-05-09T04:12:17.119Z,444.00
2023-05-09T04:13:17.238Z,443.00
2023-05-09T04:14:17.147Z,445.00
2023-05-09T04:15:17.294Z,445.00
2023-05-09T04:16:17.119Z,445.00
2023-05-09T04:17:17.114Z,448.00
2023-05-09T04:18:17.038Z,451.00
2023-05-09T04:19:17.123Z,451.00
2023-05-09T04:20:17.080Z,451.00
2023-05-09T04:21:17.090Z,450.00
2023-05-09T04:22:17.001Z,449.00
2023-05-09T04:23:17.037Z,450.00
2023-05-09T04:24:16.961Z,450.00
2023-05-09T04:25:17.271Z,448.00
2023-05-09T04:26:16.983Z,447.00
2023-05-09T04:27:17.005Z,448.00
2023-05-09T04:28:16.932Z,447.00
2023-05-09T04:29:16.985Z,446.00
2023-05-09T04:30:16.893Z,448.00
2023-05-09T04:31:17.033Z,449.00
2023-05-09T04:32:16.928Z,447.00
2023-05-09T04:33:16.932Z,449.00
2023-05-09T04:34:16.831Z,448.00
2023-05-09T04:35:18.936Z,451.00
2023-05-09T04:36:16.840Z,448.00
2023-05-09T04:37:16.994Z,452.00
2023-05-09T04:38:16.826Z,452.00
2023-05-09T04:39:16.852Z,453.00
2023-05-09T04:40:16.795Z,448.00
2023-05-09T04:41:16.830Z,449.00
2023-05-09T04:42:16.753Z,448.00
2023-05-09T04:43:16.801Z,447.00
2023-05-09T04:44:16.774Z,449.00
2023-05-09T04:45:17.078Z,449.00
2023-05-09T04:46:16.728Z,449.00
2023-05-09T04:47:16.719Z,446.00
2023-05-09T04:48:16.652Z,447.00
2023-05-09T04:49:16.723Z,447.00
2023-05-09T04:50:16.646Z,448.00
2023-05-09T04:51:16.759Z,448.00
2023-05-09T04:52:16.617Z,446.00
2023-05-09T04:53:16.705Z,448.00
2023-05-09T04:54:16.582Z,447.00
2023-05-09T04:55:16.928Z,447.00
2023-05-09T04:56:16.584Z,448.00
2023-05-09T04:57:18.869Z,450.00
2023-05-09T04:58:16.568Z,452.00
2023-05-09T04:59:16.665Z,450.00
2023-05-09T05:00:16.508Z,450.00
2023-05-09T05:01:16.596Z,447.00
2023-05-09T05:02:16.504Z,449.00
2023-05-09T05:03:16.511Z,444.00
2023-05-09T05:04:16.506Z,446.00
2023-05-09T05:05:16.573Z,440.00
2023-05-09T05:06:16.424Z,443.00
2023-05-09T05:07:16.442Z,446.00
2023-05-09T05:08:16.419Z,447.00
2023-05-09T05:09:16.469Z,445.00
2023-05-09T05:10:16.347Z,442.00
2023-05-09T05:11:16.388Z,438.00
2023-05-09T05:12:16.347Z,440.00
2023-05-09T05:13:16.471Z,441.00
2023-05-09T05:14:16.370Z,440.00
2023-05-09T05:15:16.673Z,439.00
2023-05-09T05:16:16.297Z,435.00
2023-05-09T05:17:16.355Z,437.00
2023-05-09T05:18:16.254Z,438.00
2023-05-09T05:19:16.323Z,437.00
2023-05-09T05:20:16.243Z,437.00
2023-05-09T05:21:16.264Z,440.00
2023-05-09T05:22:16.301Z,443.00
2023-05-09T05:23:17.279Z,444.00
2023-05-09T05:24:16.169Z,444.00
2023-05-09T05:25:18.281Z,442.00
2023-05-09T05:26:16.163Z,441.00
2023-05-09T05:27:16.186Z,440.00
2023-05-09T05:28:16.156Z,441.00
2023-05-09T05:29:16.192Z,438.00
2023-05-09T05:30:16.242Z,437.00
2023-05-09T05:31:16.151Z,438.00
2023-05-09T05:32:16.084Z,439.00
2023-05-09T05:33:16.121Z,437.00
2023-05-09T05:34:16.046Z,437.00
2023-05-09T05:35:16.417Z,435.00
2023-05-09T05:36:15.995Z,438.00
2023-05-09T05:37:16.056Z,436.00
2023-05-09T05:38:16.014Z,433.00
2023-05-09T05:39:16.066Z,431.00
2023-05-09T05:40:15.960Z,433.00
2023-05-09T05:41:15.995Z,436.00
2023-05-09T05:42:15.953Z,438.00
2023-05-09T05:43:16.017Z,438.00
2023-05-09T05:44:15.999Z,438.00
2023-05-09T05:45:16.362Z,441.00
2023-05-09T05:46:15.902Z,436.00
2023-05-09T05:47:15.930Z,439.00
2023-05-09T05:48:15.840Z,440.00
2023-05-09T05:49:15.937Z,441.00
2023-05-09T05:50:15.881Z,441.00
2023-05-09T05:51:15.844Z,442.00
2023-05-09T05:52:15.817Z,446.00
2023-05-09T05:53:15.855Z,442.00
2023-05-09T05:54:15.812Z,442.00
2023-05-09T05:55:16.008Z,445.00
2023-05-09T05:56:15.799Z,441.00
2023-05-09T05:57:15.772Z,444.00
2023-05-09T05:58:15.706Z,442.00
2023-05-09T05:59:15.825Z,449.00
2023-05-09T06:00:15.688Z,446.00
2023-05-09T06:01:16.270Z,440.00
2023-05-09T06:02:15.815Z,441.00
2023-05-09T06:03:15.873Z,439.00
2023-05-09T06:04:15.682Z,428.00
2023-05-09T06:05:15.854Z,439.00
2023-05-09T06:06:15.615Z,440.00
2023-05-09T06:07:15.660Z,439.00
2023-05-09T06:08:15.589Z,440.00
2023-05-09T06:09:15.653Z,435.00
2023-05-09T06:10:15.540Z,437.00
2023-05-09T06:11:15.579Z,439.00
2023-05-09T06:12:15.513Z,439.00
2023-05-09T06:13:15.630Z,437.00
2023-05-09T06:14:15.503Z,437.00
2023-05-09T06:15:15.651Z,437.00
2023-05-09T06:16:19.992Z,440.00
2023-05-09T06:17:16.657Z,442.00
2023-05-09T06:18:15.562Z,441.00
2023-05-09T06:19:15.442Z,440.00
2023-05-09T06:20:15.487Z,434.00
2023-05-09T06:21:15.415Z,436.00
2023-05-09T06:22:15.483Z,442.00
2023-05-09T06:23:15.375Z,441.00
2023-05-09T06:24:27.552Z,440.00
2023-05-09T06:25:16.648Z,443.00
2023-05-09T06:26:15.382Z,439.00
2023-05-09T06:27:15.304Z,443.00
2023-05-09T06:28:15.500Z,439.00
2023-05-09T06:29:15.280Z,438.00
2023-05-09T06:30:25.646Z,439.00
2023-05-09T06:31:16.317Z,439.00
2023-05-09T06:32:15.314Z,437.00
2023-05-09T06:33:15.236Z,436.00
2023-05-09T06:34:15.229Z,440.00
2023-05-09T06:35:15.511Z,440.00
2023-05-09T06:36:15.362Z,439.00
2023-05-09T06:37:15.203Z,437.00
2023-05-09T06:38:15.311Z,441.00
2023-05-09T06:39:15.169Z,441.00
2023-05-09T06:40:15.180Z,439.00
2023-05-09T06:41:15.139Z,442.00
2023-05-09T06:42:15.221Z,436.00
2023-05-09T06:43:15.132Z,439.00
2023-05-09T06:44:15.116Z,441.00
2023-05-09T06:45:15.308Z,441.00
2023-05-09T06:46:15.178Z,439.00
2023-05-09T06:47:15.037Z,440.00
2023-05-09T06:48:15.188Z,441.00
2023-05-09T06:49:15.052Z,440.00
2023-05-09T06:50:16.086Z,444.00
2023-05-09T06:51:15.003Z,440.00
2023-05-09T06:52:15.073Z,439.00
2023-05-09T06:53:15.157Z,438.00
2023-05-09T06:54:14.970Z,438.00
2023-05-09T06:55:15.260Z,443.00
2023-05-09T06:56:15.101Z,440.00
2023-05-09T06:57:14.955Z,437.00
2023-05-09T06:58:15.015Z,437.00
2023-05-09T06:59:14.873Z,439.00
2023-05-09T07:00:14.897Z,440.00
2023-05-09T07:01:14.957Z,443.00
2023-05-09T07:02:14.941Z,441.00
2023-05-09T07:03:14.835Z,437.00
2023-05-09T07:04:14.837Z,435.00
2023-05-09T07:05:15.099Z,432.00
2023-05-09T07:06:14.893Z,438.00
2023-05-09T07:07:14.793Z,437.00
2023-05-09T07:08:14.862Z,439.00
2023-05-09T07:09:14.747Z,438.00
2023-05-09T07:10:14.799Z,442.00
2023-05-09T07:11:14.729Z,438.00
2023-05-09T07:12:14.798Z,432.00
2023-05-09T07:13:14.816Z,436.00
2023-05-09T07:14:14.728Z,430.00
2023-05-09T07:15:18.486Z,438.00
2023-05-09T07:16:15.701Z,437.00
2023-05-09T07:17:22.965Z,440.00
2023-05-09T07:18:15.690Z,436.00
2023-05-09T07:19:14.650Z,435.00
2023-05-09T07:20:14.645Z,437.00
2023-05-09T07:21:14.670Z,439.00
2023-05-09T07:22:14.600Z,438.00
2023-05-09T07:23:14.683Z,438.00
2023-05-09T07:24:14.932Z,436.00
2023-05-09T07:25:14.930Z,428.00
2023-05-09T07:26:14.550Z,431.00
2023-05-09T07:27:14.608Z,432.00
2023-05-09T07:28:14.502Z,432.00
2023-05-09T07:29:14.538Z,430.00
2023-05-09T07:30:14.690Z,429.00
2023-05-09T07:31:14.598Z,433.00
2023-05-09T07:32:14.516Z,432.00
2023-05-09T07:33:14.632Z,435.00
2023-05-09T07:34:14.427Z,436.00
2023-05-09T07:35:14.728Z,438.00
2023-05-09T07:36:14.409Z,439.00
2023-05-09T07:37:15.500Z,437.00
2023-05-09T07:38:14.374Z,439.00
2023-05-09T07:39:14.390Z,441.00
2023-05-09T07:40:14.727Z,438.00
2023-05-09T07:41:14.567Z,437.00
2023-05-09T07:42:14.337Z,433.00
2023-05-09T07:43:14.410Z,433.00
2023-05-09T07:44:14.306Z,433.00
2023-05-09T07:45:14.515Z,430.00
2023-05-09T07:46:14.304Z,472.00
2023-05-09T07:47:14.366Z,490.00
2023-05-09T07:48:14.322Z,455.00
2023-05-09T07:49:14.283Z,442.00
2023-05-09T07:50:14.231Z,436.00
2023-05-09T07:51:14.271Z,435.00
2023-05-09T07:52:14.185Z,433.00
2023-05-09T07:53:14.188Z,423.00
2023-05-09T07:54:14.191Z,425.00
2023-05-09T07:55:16.572Z,429.00
2023-05-09T07:56:14.133Z,434.00
2023-05-09T07:57:14.211Z,429.00
2023-05-09T07:58:14.106Z,429.00
2023-05-09T07:59:14.109Z,425.00
2023-05-09T08:00:14.103Z,429.00
2023-05-09T08:01:14.139Z,433.00
2023-05-09T08:02:14.054Z,434.00
2023-05-09T08:03:14.146Z,432.00
2023-05-09T08:04:14.097Z,436.00
2023-05-09T08:05:14.427Z,437.00
2023-05-09T08:06:14.039Z,437.00
2023-05-09T08:07:14.058Z,432.00
2023-05-09T08:08:13.968Z,433.00
2023-05-09T08:09:13.992Z,430.00
2023-05-09T08:10:13.945Z,429.00
2023-05-09T08:11:15.068Z,420.00
2023-05-09T08:12:13.977Z,427.00
2023-05-09T08:13:13.952Z,424.00
2023-05-09T08:14:15.546Z,432.00
2023-05-09T08:15:14.260Z,431.00
2023-05-09T08:16:13.918Z,436.00
2023-05-09T08:17:13.939Z,431.00
2023-05-09T08:18:13.852Z,428.00
2023-05-09T08:19:13.835Z,427.00
2023-05-09T08:20:13.817Z,429.00
2023-05-09T08:21:13.892Z,431.00
2023-05-09T08:22:13.784Z,429.00
2023-05-09T08:23:13.775Z,435.00
2023-05-09T08:24:13.763Z,437.00
2023-05-09T08:25:14.066Z,429.00
2023-05-09T08:26:13.719Z,426.00
2023-05-09T08:27:13.812Z,427.00
2023-05-09T08:28:13.684Z,433.00
2023-05-09T08:29:13.715Z,430.00
2023-05-09T08:30:13.720Z,432.00
2023-05-09T08:31:13.849Z,431.00
2023-05-09T08:32:13.650Z,431.00
2023-05-09T08:33:13.714Z,427.00
2023-05-09T08:34:13.643Z,426.00
2023-05-09T08:35:34.711Z,429.00
2023-05-09T08:36:13.817Z,429.00
2023-05-09T08:37:15.220Z,426.00
2023-05-09T08:38:13.575Z,427.00
2023-05-09T08:39:13.589Z,424.00
2023-05-09T08:40:13.737Z,426.00
2023-05-09T08:41:13.583Z,426.00
2023-05-09T08:42:13.501Z,427.00
2023-05-09T08:43:13.518Z,427.00
2023-05-09T08:44:13.496Z,428.00
2023-05-09T08:45:13.609Z,429.00
2023-05-09T08:46:13.489Z,428.00
2023-05-09T08:47:13.599Z,426.00
2023-05-09T08:48:13.425Z,431.00
2023-05-09T08:49:13.450Z,433.00
2023-05-09T08:50:13.690Z,423.00
2023-05-09T08:51:13.494Z,430.00
2023-05-09T08:52:13.446Z,428.00
2023-05-09T08:53:13.443Z,422.00
2023-05-09T08:54:13.477Z,427.00
2023-05-09T08:55:13.428Z,422.00
2023-05-09T08:56:13.338Z,421.00
2023-05-09T08:57:13.314Z,422.00
2023-05-09T08:58:13.302Z,425.00
2023-05-09T08:59:13.374Z,428.00
2023-05-09T09:00:13.450Z,430.00
2023-05-09T09:01:13.410Z,425.00
2023-05-09T09:02:13.389Z,423.00
2023-05-09T09:03:13.275Z,425.00
2023-05-09T09:04:13.212Z,423.00
2023-05-09T09:05:34.004Z,425.00
2023-05-09T09:06:14.227Z,424.00
2023-05-09T09:07:13.217Z,425.00
2023-05-09T09:08:14.238Z,425.00
2023-05-09T09:09:13.124Z,422.00
2023-05-09T09:10:13.315Z,426.00
2023-05-09T09:11:13.140Z,423.00
2023-05-09T09:12:13.247Z,426.00
2023-05-09T09:13:13.096Z,424.00
2023-05-09T09:14:13.127Z,428.00
2023-05-09T09:15:13.046Z,425.00
2023-05-09T09:16:34.124Z,426.00
2023-05-09T09:17:13.024Z,426.00
2023-05-09T09:18:13.133Z,424.00
2023-05-09T09:19:13.060Z,427.00
2023-05-09T09:20:13.386Z,428.00
2023-05-09T09:21:13.004Z,428.00
2023-05-09T09:22:13.045Z,429.00
2023-05-09T09:23:12.960Z,432.00
2023-05-09T09:24:13.007Z,429.00
2023-05-09T09:25:12.917Z,425.00
2023-05-09T09:26:13.020Z,431.00
2023-05-09T09:27:12.919Z,429.00
2023-05-09T09:28:12.981Z,425.00
2023-05-09T09:29:12.887Z,429.00
2023-05-09T09:30:13.147Z,428.00
2023-05-09T09:31:12.853Z,429.00
2023-05-09T09:32:12.975Z,426.00
2023-05-09T09:33:13.089Z,423.00
2023-05-09T09:34:13.844Z,425.00
2023-05-09T09:35:12.782Z,425.00
2023-05-09T09:36:12.874Z,424.00
2023-05-09T09:37:12.777Z,425.00
2023-05-09T09:38:12.793Z,424.00
2023-05-09T09:39:12.742Z,430.00
2023-05-09T09:40:13.010Z,428.00
2023-05-09T09:41:12.767Z,424.00
2023-05-09T09:42:12.750Z,422.00
2023-05-09T09:43:12.693Z,431.00
2023-05-09T09:44:12.741Z,424.00
2023-05-09T09:45:12.644Z,421.00
2023-05-09T09:46:12.732Z,419.00
2023-05-09T09:47:12.631Z,419.00
2023-05-09T09:48:12.785Z,416.00
2023-05-09T09:49:12.621Z,420.00
2023-05-09T09:50:12.800Z,419.00
2023-05-09T09:51:12.573Z,422.00
2023-05-09T09:52:12.642Z,421.00
2023-05-09T09:53:12.559Z,423.00
2023-05-09T09:54:12.614Z,420.00
2023-05-09T09:55:12.528Z,431.00
2023-05-09T09:56:12.639Z,414.00
2023-05-09T09:57:12.508Z,416.00
2023-05-09T09:58:12.585Z,410.00
2023-05-09T09:59:12.487Z,415.00
2023-05-09T10:00:12.770Z,414.00
2023-05-09T10:01:12.462Z,413.00
2023-05-09T10:02:13.483Z,418.00
2023-05-09T10:03:12.518Z,421.00
2023-05-09T10:04:12.602Z,421.00
2023-05-09T10:05:12.427Z,422.00
2023-05-09T10:06:12.391Z,426.00
2023-05-09T10:07:14.907Z,424.00
2023-05-09T10:08:12.494Z,424.00
2023-05-09T10:09:12.367Z,475.00
2023-05-09T10:10:12.411Z,447.00
2023-05-09T10:11:12.308Z,430.00
2023-05-09T10:12:12.363Z,428.00
2023-05-09T10:13:12.519Z,429.00
2023-05-09T10:14:12.333Z,411.00
2023-05-09T10:15:12.328Z,426.00
2023-05-09T10:16:12.429Z,428.00
2023-05-09T10:17:12.360Z,430.00
2023-05-09T10:18:12.444Z,440.00
2023-05-09T10:19:12.217Z,432.00
2023-05-09T10:20:12.504Z,429.00
2023-05-09T10:21:12.166Z,434.00
2023-05-09T10:22:12.366Z,447.00
2023-05-09T10:23:12.148Z,438.00
2023-05-09T10:25:21.423Z,491.00
2023-05-09T10:26:21.402Z,433.00
2023-05-09T10:27:21.432Z,430.00
2023-05-09T10:28:21.301Z,430.00
2023-05-09T10:29:21.369Z,430.00
2023-05-09T10:30:21.257Z,429.00
2023-05-09T10:31:21.303Z,422.00
2023-05-09T10:32:21.241Z,437.00
2023-05-09T10:33:21.358Z,431.00
2023-05-09T10:34:21.197Z,425.00
2023-05-09T10:35:21.293Z,457.00
2023-05-09T10:36:21.196Z,443.00
2023-05-09T10:37:21.206Z,433.00
2023-05-09T10:38:21.146Z,417.00
2023-05-09T10:39:21.271Z,438.00
2023-05-09T10:40:21.131Z,426.00
2023-05-09T10:41:21.143Z,430.00
2023-05-09T10:42:21.097Z,429.00
2023-05-09T10:43:21.145Z,534.00
2023-05-09T10:44:21.067Z,431.00
2023-05-09T10:45:21.118Z,430.00
2023-05-09T10:46:21.090Z,429.00
2023-05-09T10:47:21.139Z,422.00
2023-05-09T10:48:21.019Z,425.00
2023-05-09T10:49:21.120Z,429.00
2023-05-09T10:50:21.059Z,432.00
2023-05-09T10:51:21.056Z,429.00
2023-05-09T10:52:20.955Z,427.00
2023-05-09T10:53:21.019Z,427.00
2023-05-09T10:54:21.010Z,429.00
2023-05-09T10:55:21.026Z,426.00
2023-05-09T10:56:20.924Z,429.00
2023-05-09T10:57:21.011Z,433.00
2023-05-09T10:58:20.920Z,426.00
2023-05-09T10:59:20.953Z,436.00
2023-05-09T11:00:20.855Z,429.00
2023-05-09T11:01:20.911Z,427.00
2023-05-09T11:02:20.846Z,441.00
2023-05-09T11:03:21.080Z,432.00
2023-05-09T11:04:20.816Z,429.00
2023-05-09T11:05:20.897Z,442.00
2023-05-09T11:06:20.788Z,436.00
2023-05-09T11:07:20.804Z,425.00
2023-05-09T11:08:20.748Z,426.00
2023-05-09T11:09:20.878Z,423.00
2023-05-09T11:10:20.760Z,423.00
2023-05-09T11:11:20.753Z,430.00
2023-05-09T11:12:20.717Z,427.00
2023-05-09T11:13:20.808Z,425.00
2023-05-09T11:14:20.671Z,434.00
2023-05-09T11:15:20.717Z,430.00
2023-05-09T11:16:20.689Z,428.00
2023-05-09T11:17:20.689Z,431.00
2023-05-09T11:18:20.635Z,482.00
2023-05-09T11:19:20.693Z,433.00
2023-05-09T11:20:20.599Z,435.00
2023-05-09T11:21:20.663Z,444.00
2023-05-09T11:22:20.572Z,456.00
2023-05-09T11:23:20.633Z,465.00
2023-05-09T11:24:20.544Z,544.00
2023-05-09T11:25:20.660Z,437.00
2023-05-09T11:26:20.519Z,434.00
2023-05-09T11:27:20.658Z,424.00
2023-05-09T11:28:20.516Z,433.00
2023-05-09T11:29:20.565Z,434.00
2023-05-09T11:30:20.526Z,433.00
2023-05-09T11:31:20.526Z,471.00
2023-05-09T11:32:20.484Z,445.00
2023-05-09T11:33:20.582Z,447.00
2023-05-09T11:34:20.397Z,428.00
2023-05-09T11:35:20.510Z,415.00
2023-05-09T11:36:20.414Z,419.00
2023-05-09T11:37:20.417Z,416.00
2023-05-09T11:38:20.355Z,418.00
2023-05-09T11:39:22.446Z,419.00
2023-05-09T11:40:20.353Z,415.00
2023-05-09T11:41:20.348Z,416.00
2023-05-09T11:42:20.305Z,415.00
2023-05-09T11:43:20.364Z,416.00
2023-05-09T11:44:20.279Z,418.00
2023-05-09T11:45:20.336Z,428.00
2023-05-09T11:46:20.331Z,422.00
2023-05-09T11:47:20.295Z,474.00
2023-05-09T11:48:20.230Z,473.00
2023-05-09T11:49:20.302Z,431.00
2023-05-09T11:50:20.199Z,426.00
2023-05-09T11:51:20.281Z,417.00
2023-05-09T11:52:20.182Z,425.00
2023-05-09T11:53:20.223Z,450.00
2023-05-09T11:54:20.133Z,428.00
2023-05-09T11:55:20.250Z,419.00
2023-05-09T11:56:20.119Z,416.00
2023-05-09T11:57:20.232Z,422.00
2023-05-09T11:58:20.090Z,421.00
2023-05-09T11:59:20.161Z,427.00
2023-05-09T12:00:20.054Z,426.00
2023-05-09T12:01:20.102Z,433.00
2023-05-09T12:02:20.116Z,422.00
2023-05-09T12:03:20.316Z,424.00
2023-05-09T12:04:20.079Z,422.00
2023-05-09T12:05:20.139Z,426.00
2023-05-09T12:06:19.995Z,424.00
2023-05-09T12:07:20.024Z,418.00
2023-05-09T12:08:19.973Z,483.00
2023-05-09T12:09:19.990Z,476.00
2023-05-09T12:10:19.936Z,440.00
2023-05-09T12:11:19.996Z,422.00
2023-05-09T12:12:19.963Z,526.00
2023-05-09T12:13:20.007Z,494.00
2023-05-09T12:14:19.886Z,423.00
2023-05-09T12:15:20.170Z,423.00
2023-05-09T12:16:19.888Z,419.00
2023-05-09T12:17:19.880Z,418.00
2023-05-09T12:18:19.832Z,460.00
2023-05-09T12:19:19.903Z,434.00
2023-05-09T12:20:19.849Z,417.00
2023-05-09T12:21:19.876Z,414.00
2023-05-09T12:22:19.767Z,414.00
2023-05-09T12:23:19.860Z,427.00
2023-05-09T12:24:19.772Z,398.00
2023-05-09T12:25:19.890Z,423.00
2023-05-09T12:26:19.727Z,458.00
2023-05-09T12:27:19.844Z,497.00
2023-05-09T12:28:19.708Z,580.00
2023-05-09T12:29:19.768Z,440.00